sensor_id;sensor_type;location;lat;lon;timestamp;temperature;humidity
19342;DHT22;9807;48.258;12.690;2023-09-19T00:01:42;17.70;99.90
19342;DHT22;9807;48.258;12.690;2023-09-19T00:04:11;17.60;99.90
19342;DHT22;9807;48.258;12.690;2023-09-19T00:06:38;17.40;99.90
19342;DHT22;9807;48.258;12.690;2023-09-19T00:09:04;17.40;99.90
19342;DHT22;9807;48.258;12.690;2023-09-19T00:11:30;17.70;99.90
19342;DHT22;9807;48.258;12.690;2023-09-19T00:13:57;17.90;99.90
19342;DHT22;9807;48.258;12.690;2023-09-19T00:16:26;18.30;99.90
19342;DHT22;9807;48.258;12.690;2023-09-19T00:18:52;18.50;99.90
19342;DHT22;9807;48.258;12.690;2023-09-19T00:21:18;18.80;99.90
19342;DHT22;9807;48.258;12.690;2023-09-19T00:23:47;18.90;99.90
19342;DHT22;9807;48.258;12.690;2023-09-19T00:26:13;19.10;99.90
19342;DHT22;9807;48.258;12.690;2023-09-19T00:28:39;19.10;99.90
19342;DHT22;9807;48.258;12.690;2023-09-19T00:31:07;19.20;99.90
19342;DHT22;9807;48.258;12.690;2023-09-19T00:33:34;19.30;99.90
19342;DHT22;9807;48.258;12.690;2023-09-19T00:35:59;19.30;99.90
19342;DHT22;9807;48.258;12.690;2023-09-19T00:38:27;19.30;99.90
19342;DHT22;9807;48.258;12.690;2023-09-19T00:40:54;19.40;99.90
19342;DHT22;9807;48.258;12.690;2023-09-19T00:43:20;19.40;99.90
19342;DHT22;9807;48.258;12.690;2023-09-19T00:45:49;19.50;99.90
19342;DHT22;9807;48.258;12.690;2023-09-19T00:48:16;19.50;99.90
19342;DHT22;9807;48.258;12.690;2023-09-19T00:50:45;19.50;99.90
19342;DHT22;9807;48.258;12.690;2023-09-19T00:53:14;19.50;99.90
19342;DHT22;9807;48.258;12.690;2023-09-19T00:55:42;19.50;99.90
19342;DHT22;9807;48.258;12.690;2023-09-19T00:58:08;19.40;99.90
19342;DHT22;9807;48.258;12.690;2023-09-19T01:00:36;19.20;99.90
19342;DHT22;9807;48.258;12.690;2023-09-19T01:03:02;18.90;99.90
19342;DHT22;9807;48.258;12.690;2023-09-19T01:05:30;18.80;99.90
19342;DHT22;9807;48.258;12.690;2023-09-19T01:07:56;18.80;99.90
19342;DHT22;9807;48.258;12.690;2023-09-19T01:10:22;18.90;99.90
19342;DHT22;9807;48.258;12.690;2023-09-19T01:15:51;19.20;99.90
19342;DHT22;9807;48.258;12.690;2023-09-19T01:21:08;19.30;99.90
19342;DHT22;9807;48.258;12.690;2023-09-19T01:28:51;19.40;99.90
19342;DHT22;9807;48.258;12.690;2023-09-19T01:31:20;19.40;99.90
19342;DHT22;9807;48.258;12.690;2023-09-19T01:33:59;19.40;99.90
19342;DHT22;9807;48.258;12.690;2023-09-19T01:36:30;19.50;99.90
19342;DHT22;9807;48.258;12.690;2023-09-19T01:38:57;19.50;99.90
19342;DHT22;9807;48.258;12.690;2023-09-19T01:44:15;19.40;99.90
19342;DHT22;9807;48.258;12.690;2023-09-19T01:46:44;19.30;99.90
19342;DHT22;9807;48.258;12.690;2023-09-19T01:49:22;19.20;99.90
19342;DHT22;9807;48.258;12.690;2023-09-19T01:52:04;19.20;99.90
19342;DHT22;9807;48.258;12.690;2023-09-19T01:54:36;19.20;99.90
19342;DHT22;9807;48.258;12.690;2023-09-19T01:57:13;19.30;99.90
19342;DHT22;9807;48.258;12.690;2023-09-19T01:59:48;19.40;99.90
19342;DHT22;9807;48.258;12.690;2023-09-19T02:02:17;19.40;99.90
19342;DHT22;9807;48.258;12.690;2023-09-19T02:04:43;19.40;99.90
19342;DHT22;9807;48.258;12.690;2023-09-19T02:07:09;19.40;99.90
19342;DHT22;9807;48.258;12.690;2023-09-19T02:09:35;19.40;99.90
19342;DHT22;9807;48.258;12.690;2023-09-19T02:12:03;19.40;99.90
19342;DHT22;9807;48.258;12.690;2023-09-19T02:14:31;19.40;99.90
19342;DHT22;9807;48.258;12.690;2023-09-19T02:16:58;19.20;99.90
19342;DHT22;9807;48.258;12.690;2023-09-19T02:19:23;19.10;99.90
19342;DHT22;9807;48.258;12.690;2023-09-19T02:21:49;18.90;99.90
19342;DHT22;9807;48.258;12.690;2023-09-19T02:24:15;18.70;99.90
19342;DHT22;9807;48.258;12.690;2023-09-19T02:26:41;18.40;99.90
19342;DHT22;9807;48.258;12.690;2023-09-19T02:29:06;18.30;99.90
19342;DHT22;9807;48.258;12.690;2023-09-19T02:31:32;18.40;99.90
19342;DHT22;9807;48.258;12.690;2023-09-19T02:33:58;18.40;99.90
19342;DHT22;9807;48.258;12.690;2023-09-19T02:36:25;18.30;99.90
19342;DHT22;9807;48.258;12.690;2023-09-19T02:38:51;18.30;99.90
19342;DHT22;9807;48.258;12.690;2023-09-19T02:41:17;18.40;99.90
19342;DHT22;9807;48.258;12.690;2023-09-19T02:43:42;18.30;99.90
19342;DHT22;9807;48.258;12.690;2023-09-19T02:46:08;18.30;99.90
19342;DHT22;9807;48.258;12.690;2023-09-19T02:48:34;18.40;99.90
19342;DHT22;9807;48.258;12.690;2023-09-19T02:51:01;18.40;99.90
19342;DHT22;9807;48.258;12.690;2023-09-19T02:53:30;18.30;99.90
19342;DHT22;9807;48.258;12.690;2023-09-19T02:55:57;18.40;99.90
19342;DHT22;9807;48.258;12.690;2023-09-19T02:58:24;18.30;99.90
19342;DHT22;9807;48.258;12.690;2023-09-19T03:00:50;18.20;99.90
19342;DHT22;9807;48.258;12.690;2023-09-19T03:03:17;18.20;99.90
19342;DHT22;9807;48.258;12.690;2023-09-19T03:05:43;18.20;99.90
19342;DHT22;9807;48.258;12.690;2023-09-19T03:08:13;18.10;99.90
19342;DHT22;9807;48.258;12.690;2023-09-19T03:10:42;18.10;99.90
19342;DHT22;9807;48.258;12.690;2023-09-19T03:13:08;18.10;99.90
19342;DHT22;9807;48.258;12.690;2023-09-19T03:15:35;18.00;99.90
19342;DHT22;9807;48.258;12.690;2023-09-19T03:18:04;18.00;99.90
19342;DHT22;9807;48.258;12.690;2023-09-19T03:23:47;17.70;99.90
19342;DHT22;9807;48.258;12.690;2023-09-19T03:26:13;17.40;99.90
19342;DHT22;9807;48.258;12.690;2023-09-19T03:28:43;17.30;99.90
19342;DHT22;9807;48.258;12.690;2023-09-19T03:31:09;17.30;99.90
19342;DHT22;9807;48.258;12.690;2023-09-19T03:33:36;17.20;99.90
19342;DHT22;9807;48.258;12.690;2023-09-19T03:36:03;17.30;99.90
19342;DHT22;9807;48.258;12.690;2023-09-19T03:38:33;17.30;99.90
19342;DHT22;9807;48.258;12.690;2023-09-19T03:41:00;17.30;99.90
19342;DHT22;9807;48.258;12.690;2023-09-19T03:43:26;17.20;99.90
19342;DHT22;9807;48.258;12.690;2023-09-19T03:45:53;17.20;99.90
19342;DHT22;9807;48.258;12.690;2023-09-19T03:48:20;17.10;99.90
19342;DHT22;9807;48.258;12.690;2023-09-19T03:50:47;17.20;99.90
19342;DHT22;9807;48.258;12.690;2023-09-19T03:53:13;17.50;99.90
19342;DHT22;9807;48.258;12.690;2023-09-19T03:55:39;17.80;99.90
19342;DHT22;9807;48.258;12.690;2023-09-19T03:58:05;17.90;99.90
19342;DHT22;9807;48.258;12.690;2023-09-19T04:00:33;17.80;99.90
19342;DHT22;9807;48.258;12.690;2023-09-19T04:02:59;17.90;99.90
19342;DHT22;9807;48.258;12.690;2023-09-19T04:05:27;17.90;99.90
19342;DHT22;9807;48.258;12.690;2023-09-19T04:07:53;17.70;99.90
19342;DHT22;9807;48.258;12.690;2023-09-19T04:10:19;17.60;99.90
19342;DHT22;9807;48.258;12.690;2023-09-19T04:12:55;17.60;99.90
19342;DHT22;9807;48.258;12.690;2023-09-19T04:15:21;17.60;99.90
19342;DHT22;9807;48.258;12.690;2023-09-19T04:17:51;17.60;99.90
19342;DHT22;9807;48.258;12.690;2023-09-19T04:20:17;17.60;99.90
19342;DHT22;9807;48.258;12.690;2023-09-19T04:22:45;17.60;99.90
19342;DHT22;9807;48.258;12.690;2023-09-19T04:25:12;17.70;99.90
19342;DHT22;9807;48.258;12.690;2023-09-19T04:27:38;17.70;99.90
19342;DHT22;9807;48.258;12.690;2023-09-19T04:30:05;17.90;99.90
19342;DHT22;9807;48.258;12.690;2023-09-19T04:32:35;18.00;99.90
19342;DHT22;9807;48.258;12.690;2023-09-19T04:35:01;18.00;99.90
19342;DHT22;9807;48.258;12.690;2023-09-19T04:37:31;18.20;99.90
19342;DHT22;9807;48.258;12.690;2023-09-19T04:39:56;18.10;99.90
19342;DHT22;9807;48.258;12.690;2023-09-19T04:42:22;17.80;99.90
19342;DHT22;9807;48.258;12.690;2023-09-19T04:44:50;17.60;99.90
19342;DHT22;9807;48.258;12.690;2023-09-19T04:47:19;17.60;99.90
19342;DHT22;9807;48.258;12.690;2023-09-19T04:49:44;17.50;99.90
19342;DHT22;9807;48.258;12.690;2023-09-19T04:52:10;17.50;99.90
19342;DHT22;9807;48.258;12.690;2023-09-19T04:54:36;17.30;99.90
19342;DHT22;9807;48.258;12.690;2023-09-19T04:57:02;17.30;99.90
19342;DHT22;9807;48.258;12.690;2023-09-19T04:59:27;17.20;99.90
19342;DHT22;9807;48.258;12.690;2023-09-19T05:01:54;17.00;99.90
19342;DHT22;9807;48.258;12.690;2023-09-19T05:04:21;16.90;99.90
19342;DHT22;9807;48.258;12.690;2023-09-19T05:06:47;16.80;99.90
19342;DHT22;9807;48.258;12.690;2023-09-19T05:09:13;16.70;99.90
19342;DHT22;9807;48.258;12.690;2023-09-19T05:11:38;16.60;99.90
19342;DHT22;9807;48.258;12.690;2023-09-19T05:14:04;16.60;99.90
19342;DHT22;9807;48.258;12.690;2023-09-19T05:16:30;16.60;99.90
19342;DHT22;9807;48.258;12.690;2023-09-19T05:18:59;16.60;99.90
19342;DHT22;9807;48.258;12.690;2023-09-19T05:21:26;16.50;99.90
19342;DHT22;9807;48.258;12.690;2023-09-19T05:23:56;16.60;99.90
19342;DHT22;9807;48.258;12.690;2023-09-19T05:26:22;16.60;99.90
19342;DHT22;9807;48.258;12.690;2023-09-19T05:28:48;16.50;99.90
19342;DHT22;9807;48.258;12.690;2023-09-19T05:31:13;16.40;99.90
19342;DHT22;9807;48.258;12.690;2023-09-19T05:33:41;16.40;99.90
19342;DHT22;9807;48.258;12.690;2023-09-19T05:36:06;16.40;99.90
19342;DHT22;9807;48.258;12.690;2023-09-19T05:38:35;16.40;99.90
19342;DHT22;9807;48.258;12.690;2023-09-19T05:41:00;16.50;99.90
19342;DHT22;9807;48.258;12.690;2023-09-19T05:43:27;16.40;99.90
19342;DHT22;9807;48.258;12.690;2023-09-19T05:45:53;16.40;99.90
19342;DHT22;9807;48.258;12.690;2023-09-19T05:48:21;16.40;99.90
19342;DHT22;9807;48.258;12.690;2023-09-19T05:50:47;16.50;99.90
19342;DHT22;9807;48.258;12.690;2023-09-19T05:53:14;16.40;99.90
19342;DHT22;9807;48.258;12.690;2023-09-19T05:55:40;16.30;99.90
19342;DHT22;9807;48.258;12.690;2023-09-19T05:58:06;16.30;99.90
19342;DHT22;9807;48.258;12.690;2023-09-19T06:00:32;16.30;99.90
19342;DHT22;9807;48.258;12.690;2023-09-19T06:02:59;16.30;99.90
19342;DHT22;9807;48.258;12.690;2023-09-19T06:05:27;16.30;99.90
19342;DHT22;9807;48.258;12.690;2023-09-19T06:07:53;16.30;99.90
19342;DHT22;9807;48.258;12.690;2023-09-19T06:10:19;16.40;99.90
19342;DHT22;9807;48.258;12.690;2023-09-19T06:12:48;16.40;99.90
19342;DHT22;9807;48.258;12.690;2023-09-19T06:15:15;16.40;99.90
19342;DHT22;9807;48.258;12.690;2023-09-19T06:18:10;16.40;99.90
19342;DHT22;9807;48.258;12.690;2023-09-19T06:20:37;16.40;99.90
19342;DHT22;9807;48.258;12.690;2023-09-19T06:23:03;16.50;99.90
19342;DHT22;9807;48.258;12.690;2023-09-19T06:25:29;16.50;99.90
19342;DHT22;9807;48.258;12.690;2023-09-19T06:27:55;16.60;99.90
19342;DHT22;9807;48.258;12.690;2023-09-19T06:30:23;16.70;99.90
19342;DHT22;9807;48.258;12.690;2023-09-19T06:32:49;16.80;99.90
19342;DHT22;9807;48.258;12.690;2023-09-19T06:35:16;16.90;99.90
19342;DHT22;9807;48.258;12.690;2023-09-19T06:37:42;16.90;99.90
19342;DHT22;9807;48.258;12.690;2023-09-19T06:40:13;16.90;99.90
19342;DHT22;9807;48.258;12.690;2023-09-19T06:42:40;17.00;99.90
19342;DHT22;9807;48.258;12.690;2023-09-19T06:45:06;17.10;99.90
19342;DHT22;9807;48.258;12.690;2023-09-19T06:47:33;17.10;99.90
19342;DHT22;9807;48.258;12.690;2023-09-19T06:49:58;17.20;99.90
19342;DHT22;9807;48.258;12.690;2023-09-19T06:52:24;17.20;99.90
19342;DHT22;9807;48.258;12.690;2023-09-19T06:54:51;17.20;99.90
19342;DHT22;9807;48.258;12.690;2023-09-19T06:57:18;17.20;99.90
19342;DHT22;9807;48.258;12.690;2023-09-19T06:59:43;17.20;99.90
19342;DHT22;9807;48.258;12.690;2023-09-19T07:02:10;17.30;99.90
19342;DHT22;9807;48.258;12.690;2023-09-19T07:04:36;17.30;99.90
19342;DHT22;9807;48.258;12.690;2023-09-19T07:07:02;17.40;99.90
19342;DHT22;9807;48.258;12.690;2023-09-19T07:09:27;17.40;99.90
19342;DHT22;9807;48.258;12.690;2023-09-19T07:11:54;17.40;99.90
19342;DHT22;9807;48.258;12.690;2023-09-19T07:14:19;17.50;99.90
19342;DHT22;9807;48.258;12.690;2023-09-19T07:16:45;17.50;99.90
19342;DHT22;9807;48.258;12.690;2023-09-19T07:19:13;17.60;99.90
19342;DHT22;9807;48.258;12.690;2023-09-19T07:21:40;17.60;99.90
19342;DHT22;9807;48.258;12.690;2023-09-19T07:24:06;17.80;99.90
19342;DHT22;9807;48.258;12.690;2023-09-19T07:26:33;17.90;99.90
19342;DHT22;9807;48.258;12.690;2023-09-19T07:28:59;18.10;99.90
19342;DHT22;9807;48.258;12.690;2023-09-19T07:31:28;18.00;99.90
19342;DHT22;9807;48.258;12.690;2023-09-19T07:33:55;18.00;99.90
19342;DHT22;9807;48.258;12.690;2023-09-19T07:36:20;18.10;99.90
19342;DHT22;9807;48.258;12.690;2023-09-19T07:38:46;18.30;99.90
19342;DHT22;9807;48.258;12.690;2023-09-19T07:41:13;18.30;99.90
19342;DHT22;9807;48.258;12.690;2023-09-19T07:43:39;18.50;99.90
19342;DHT22;9807;48.258;12.690;2023-09-19T07:46:08;18.50;99.90
19342;DHT22;9807;48.258;12.690;2023-09-19T07:48:37;18.70;99.90
19342;DHT22;9807;48.258;12.690;2023-09-19T07:51:07;18.70;99.90
19342;DHT22;9807;48.258;12.690;2023-09-19T07:53:35;18.70;99.90
19342;DHT22;9807;48.258;12.690;2023-09-19T07:56:09;18.70;99.90
19342;DHT22;9807;48.258;12.690;2023-09-19T07:58:36;18.80;99.90
19342;DHT22;9807;48.258;12.690;2023-09-19T08:01:08;18.60;99.90
19342;DHT22;9807;48.258;12.690;2023-09-19T08:03:34;18.50;99.90
19342;DHT22;9807;48.258;12.690;2023-09-19T08:06:06;18.50;99.90
19342;DHT22;9807;48.258;12.690;2023-09-19T08:08:32;18.60;99.90
19342;DHT22;9807;48.258;12.690;2023-09-19T08:11:00;18.80;99.90
19342;DHT22;9807;48.258;12.690;2023-09-19T08:13:27;18.80;99.90
19342;DHT22;9807;48.258;12.690;2023-09-19T08:15:52;18.90;99.90
19342;DHT22;9807;48.258;12.690;2023-09-19T08:18:18;19.10;99.90
19342;DHT22;9807;48.258;12.690;2023-09-19T08:20:50;19.10;99.90
19342;DHT22;9807;48.258;12.690;2023-09-19T08:23:16;19.10;99.90
19342;DHT22;9807;48.258;12.690;2023-09-19T08:25:43;19.20;99.90
19342;DHT22;9807;48.258;12.690;2023-09-19T08:28:09;19.20;99.90
19342;DHT22;9807;48.258;12.690;2023-09-19T08:30:37;19.30;99.90
19342;DHT22;9807;48.258;12.690;2023-09-19T08:33:06;19.40;99.90
19342;DHT22;9807;48.258;12.690;2023-09-19T08:35:33;19.40;99.90
19342;DHT22;9807;48.258;12.690;2023-09-19T08:37:59;19.40;99.90
19342;DHT22;9807;48.258;12.690;2023-09-19T08:40:32;19.50;99.90
19342;DHT22;9807;48.258;12.690;2023-09-19T08:43:01;19.60;99.90
19342;DHT22;9807;48.258;12.690;2023-09-19T08:45:27;19.70;99.90
19342;DHT22;9807;48.258;12.690;2023-09-19T08:50:36;19.80;99.90
19342;DHT22;9807;48.258;12.690;2023-09-19T08:53:10;19.90;99.90
19342;DHT22;9807;48.258;12.690;2023-09-19T08:55:40;19.90;99.90
19342;DHT22;9807;48.258;12.690;2023-09-19T08:58:10;20.00;99.90
19342;DHT22;9807;48.258;12.690;2023-09-19T09:00:36;20.00;99.90
19342;DHT22;9807;48.258;12.690;2023-09-19T09:03:02;20.10;99.90
19342;DHT22;9807;48.258;12.690;2023-09-19T09:05:30;20.10;99.90
19342;DHT22;9807;48.258;12.690;2023-09-19T09:07:58;20.20;99.90
19342;DHT22;9807;48.258;12.690;2023-09-19T09:10:27;20.20;99.90
19342;DHT22;9807;48.258;12.690;2023-09-19T09:12:58;20.00;99.90
19342;DHT22;9807;48.258;12.690;2023-09-19T09:15:24;20.00;99.90
19342;DHT22;9807;48.258;12.690;2023-09-19T09:17:51;19.90;99.90
19342;DHT22;9807;48.258;12.690;2023-09-19T09:20:19;20.00;99.90
19342;DHT22;9807;48.258;12.690;2023-09-19T09:22:53;20.00;99.90
19342;DHT22;9807;48.258;12.690;2023-09-19T09:25:47;20.10;99.90
19342;DHT22;9807;48.258;12.690;2023-09-19T09:28:19;20.30;99.90
19342;DHT22;9807;48.258;12.690;2023-09-19T09:30:45;20.40;99.90
19342;DHT22;9807;48.258;12.690;2023-09-19T09:33:12;20.40;99.90
19342;DHT22;9807;48.258;12.690;2023-09-19T09:38:23;20.40;99.90
19342;DHT22;9807;48.258;12.690;2023-09-19T09:40:54;20.60;99.90
19342;DHT22;9807;48.258;12.690;2023-09-19T09:46:15;20.70;99.90
19342;DHT22;9807;48.258;12.690;2023-09-19T09:48:48;20.80;99.90
19342;DHT22;9807;48.258;12.690;2023-09-19T09:51:49;20.80;99.90
19342;DHT22;9807;48.258;12.690;2023-09-19T09:54:32;20.80;99.90
19342;DHT22;9807;48.258;12.690;2023-09-19T09:57:06;20.80;99.90
19342;DHT22;9807;48.258;12.690;2023-09-19T10:02:13;20.70;99.90
19342;DHT22;9807;48.258;12.690;2023-09-19T10:08:10;20.20;99.90
19342;DHT22;9807;48.258;12.690;2023-09-19T10:10:39;20.00;99.90
19342;DHT22;9807;48.258;12.690;2023-09-19T10:13:14;20.00;99.90
19342;DHT22;9807;48.258;12.690;2023-09-19T10:15:46;20.10;99.90
19342;DHT22;9807;48.258;12.690;2023-09-19T10:18:24;20.20;99.90
19342;DHT22;9807;48.258;12.690;2023-09-19T10:20:51;20.30;99.90
19342;DHT22;9807;48.258;12.690;2023-09-19T10:23:19;20.40;99.90
19342;DHT22;9807;48.258;12.690;2023-09-19T10:25:49;20.50;99.90
19342;DHT22;9807;48.258;12.690;2023-09-19T10:28:17;20.60;99.90
19342;DHT22;9807;48.258;12.690;2023-09-19T10:30:48;20.80;99.90
19342;DHT22;9807;48.258;12.690;2023-09-19T10:33:16;20.90;99.90
19342;DHT22;9807;48.258;12.690;2023-09-19T10:35:45;20.90;99.90
19342;DHT22;9807;48.258;12.690;2023-09-19T10:38:12;20.80;99.90
19342;DHT22;9807;48.258;12.690;2023-09-19T10:40:40;20.60;99.90
19342;DHT22;9807;48.258;12.690;2023-09-19T10:43:20;20.40;99.90
19342;DHT22;9807;48.258;12.690;2023-09-19T10:45:50;20.40;99.90
19342;DHT22;9807;48.258;12.690;2023-09-19T10:48:18;20.50;99.90
19342;DHT22;9807;48.258;12.690;2023-09-19T10:50:58;20.60;99.90
19342;DHT22;9807;48.258;12.690;2023-09-19T10:53:29;20.90;99.90
19342;DHT22;9807;48.258;12.690;2023-09-19T10:55:59;21.00;99.90
19342;DHT22;9807;48.258;12.690;2023-09-19T10:58:31;21.10;99.90
19342;DHT22;9807;48.258;12.690;2023-09-19T11:01:04;21.20;99.90
19342;DHT22;9807;48.258;12.690;2023-09-19T11:03:38;21.30;99.90
19342;DHT22;9807;48.258;12.690;2023-09-19T11:06:18;21.40;99.90
19342;DHT22;9807;48.258;12.690;2023-09-19T11:09:01;21.60;99.90
19342;DHT22;9807;48.258;12.690;2023-09-19T11:11:51;21.70;99.90
19342;DHT22;9807;48.258;12.690;2023-09-19T11:30:51;22.40;99.90
19342;DHT22;9807;48.258;12.690;2023-09-19T11:33:33;22.30;99.90
19342;DHT22;9807;48.258;12.690;2023-09-19T11:46:32;22.30;99.90
19342;DHT22;9807;48.258;12.690;2023-09-19T11:49:09;22.30;99.90
19342;DHT22;9807;48.258;12.690;2023-09-19T11:51:43;22.20;99.90
19342;DHT22;9807;48.258;12.690;2023-09-19T11:54:13;21.70;99.90
19342;DHT22;9807;48.258;12.690;2023-09-19T11:56:54;20.90;99.90
19342;DHT22;9807;48.258;12.690;2023-09-19T11:59:24;20.20;99.90
19342;DHT22;9807;48.258;12.690;2023-09-19T12:01:54;20.00;99.90
19342;DHT22;9807;48.258;12.690;2023-09-19T12:04:37;19.90;99.90
19342;DHT22;9807;48.258;12.690;2023-09-19T12:07:16;19.70;99.90
19342;DHT22;9807;48.258;12.690;2023-09-19T12:09:42;19.50;99.90
19342;DHT22;9807;48.258;12.690;2023-09-19T12:12:10;19.40;99.90
19342;DHT22;9807;48.258;12.690;2023-09-19T12:14:38;19.30;99.90
19342;DHT22;9807;48.258;12.690;2023-09-19T12:17:06;19.40;99.90
19342;DHT22;9807;48.258;12.690;2023-09-19T12:19:32;19.50;99.90
19342;DHT22;9807;48.258;12.690;2023-09-19T12:21:59;19.60;99.90
19342;DHT22;9807;48.258;12.690;2023-09-19T12:24:30;19.60;99.90
19342;DHT22;9807;48.258;12.690;2023-09-19T12:27:04;19.60;99.90
19342;DHT22;9807;48.258;12.690;2023-09-19T12:29:32;19.60;99.90
19342;DHT22;9807;48.258;12.690;2023-09-19T12:31:59;19.50;99.90
19342;DHT22;9807;48.258;12.690;2023-09-19T12:34:30;19.50;99.90
19342;DHT22;9807;48.258;12.690;2023-09-19T12:37:13;19.60;99.90
19342;DHT22;9807;48.258;12.690;2023-09-19T12:39:53;19.60;99.90
19342;DHT22;9807;48.258;12.690;2023-09-19T12:42:40;19.70;99.90
19342;DHT22;9807;48.258;12.690;2023-09-19T12:45:07;20.00;99.90
19342;DHT22;9807;48.258;12.690;2023-09-19T12:47:35;20.20;99.90
19342;DHT22;9807;48.258;12.690;2023-09-19T12:50:10;20.40;99.90
19342;DHT22;9807;48.258;12.690;2023-09-19T12:55:23;20.80;99.90
19342;DHT22;9807;48.258;12.690;2023-09-19T12:58:15;21.00;99.90
19342;DHT22;9807;48.258;12.690;2023-09-19T13:00:43;21.10;99.90
19342;DHT22;9807;48.258;12.690;2023-09-19T13:03:18;21.30;99.90
19342;DHT22;9807;48.258;12.690;2023-09-19T13:05:51;21.20;99.90
19342;DHT22;9807;48.258;12.690;2023-09-19T13:08:24;21.30;99.90
19342;DHT22;9807;48.258;12.690;2023-09-19T13:11:03;21.20;99.90
19342;DHT22;9807;48.258;12.690;2023-09-19T13:13:33;21.20;99.90
19342;DHT22;9807;48.258;12.690;2023-09-19T13:16:00;21.10;99.90
19342;DHT22;9807;48.258;12.690;2023-09-19T13:18:27;21.20;99.90
19342;DHT22;9807;48.258;12.690;2023-09-19T13:21:12;21.40;99.90
19342;DHT22;9807;48.258;12.690;2023-09-19T13:23:42;21.40;99.90
19342;DHT22;9807;48.258;12.690;2023-09-19T13:26:09;21.50;99.90
19342;DHT22;9807;48.258;12.690;2023-09-19T13:28:37;21.60;99.90
19342;DHT22;9807;48.258;12.690;2023-09-19T13:31:02;21.60;99.90
19342;DHT22;9807;48.258;12.690;2023-09-19T13:33:31;21.60;99.90
19342;DHT22;9807;48.258;12.690;2023-09-19T13:35:56;21.60;99.90
19342;DHT22;9807;48.258;12.690;2023-09-19T13:38:22;21.80;99.90
19342;DHT22;9807;48.258;12.690;2023-09-19T13:40:48;21.90;99.90
19342;DHT22;9807;48.258;12.690;2023-09-19T13:43:15;22.10;99.90
19342;DHT22;9807;48.258;12.690;2023-09-19T13:45:41;22.20;99.90
19342;DHT22;9807;48.258;12.690;2023-09-19T13:48:08;22.20;99.90
19342;DHT22;9807;48.258;12.690;2023-09-19T13:50:37;22.20;99.90
19342;DHT22;9807;48.258;12.690;2023-09-19T13:53:08;22.20;99.90
19342;DHT22;9807;48.258;12.690;2023-09-19T13:55:34;22.20;99.90
19342;DHT22;9807;48.258;12.690;2023-09-19T13:58:03;22.20;99.90
19342;DHT22;9807;48.258;12.690;2023-09-19T14:00:32;22.20;99.90
19342;DHT22;9807;48.258;12.690;2023-09-19T14:03:00;22.10;99.90
19342;DHT22;9807;48.258;12.690;2023-09-19T14:05:26;22.20;99.90
19342;DHT22;9807;48.258;12.690;2023-09-19T14:07:53;22.20;99.90
19342;DHT22;9807;48.258;12.690;2023-09-19T14:10:21;22.30;99.90
19342;DHT22;9807;48.258;12.690;2023-09-19T14:12:47;22.20;99.90
19342;DHT22;9807;48.258;12.690;2023-09-19T14:15:13;22.20;99.90
19342;DHT22;9807;48.258;12.690;2023-09-19T14:17:40;22.20;99.90
19342;DHT22;9807;48.258;12.690;2023-09-19T14:20:10;22.30;99.90
19342;DHT22;9807;48.258;12.690;2023-09-19T14:22:36;22.60;99.90
19342;DHT22;9807;48.258;12.690;2023-09-19T14:25:02;22.80;99.90
19342;DHT22;9807;48.258;12.690;2023-09-19T14:27:30;22.90;99.90
19342;DHT22;9807;48.258;12.690;2023-09-19T14:29:56;23.00;99.90
19342;DHT22;9807;48.258;12.690;2023-09-19T14:32:23;22.70;99.90
19342;DHT22;9807;48.258;12.690;2023-09-19T14:34:48;22.60;99.90
19342;DHT22;9807;48.258;12.690;2023-09-19T14:37:15;22.60;99.90
19342;DHT22;9807;48.258;12.690;2023-09-19T14:39:42;22.70;99.90
19342;DHT22;9807;48.258;12.690;2023-09-19T14:42:11;22.80;99.90
19342;DHT22;9807;48.258;12.690;2023-09-19T14:44:37;22.90;99.90
19342;DHT22;9807;48.258;12.690;2023-09-19T14:47:03;22.80;99.90
19342;DHT22;9807;48.258;12.690;2023-09-19T14:49:36;22.90;99.90
19342;DHT22;9807;48.258;12.690;2023-09-19T14:52:07;22.90;99.90
19342;DHT22;9807;48.258;12.690;2023-09-19T14:54:33;22.90;99.90
19342;DHT22;9807;48.258;12.690;2023-09-19T14:56:59;22.90;99.90
19342;DHT22;9807;48.258;12.690;2023-09-19T14:59:34;23.00;99.90
19342;DHT22;9807;48.258;12.690;2023-09-19T15:02:06;23.10;99.90
19342;DHT22;9807;48.258;12.690;2023-09-19T15:04:32;23.30;99.90
19342;DHT22;9807;48.258;12.690;2023-09-19T15:06:59;23.30;99.90
19342;DHT22;9807;48.258;12.690;2023-09-19T15:09:25;23.40;99.90
19342;DHT22;9807;48.258;12.690;2023-09-19T15:11:54;23.50;99.90
19342;DHT22;9807;48.258;12.690;2023-09-19T15:14:22;23.40;99.90
19342;DHT22;9807;48.258;12.690;2023-09-19T15:16:56;23.40;99.90
19342;DHT22;9807;48.258;12.690;2023-09-19T15:19:22;23.20;99.90
19342;DHT22;9807;48.258;12.690;2023-09-19T15:21:48;23.10;99.90
19342;DHT22;9807;48.258;12.690;2023-09-19T15:24:13;22.80;99.90
19342;DHT22;9807;48.258;12.690;2023-09-19T15:26:40;22.80;99.90
19342;DHT22;9807;48.258;12.690;2023-09-19T15:29:09;22.80;99.90
19342;DHT22;9807;48.258;12.690;2023-09-19T15:31:36;22.70;99.90
19342;DHT22;9807;48.258;12.690;2023-09-19T15:34:02;22.80;99.90
19342;DHT22;9807;48.258;12.690;2023-09-19T15:36:31;22.80;99.90
19342;DHT22;9807;48.258;12.690;2023-09-19T15:39:00;22.90;99.90
19342;DHT22;9807;48.258;12.690;2023-09-19T15:41:37;22.80;99.90
19342;DHT22;9807;48.258;12.690;2023-09-19T15:44:03;22.80;99.90
19342;DHT22;9807;48.258;12.690;2023-09-19T15:46:33;22.70;99.90
19342;DHT22;9807;48.258;12.690;2023-09-19T15:49:03;22.70;99.90
19342;DHT22;9807;48.258;12.690;2023-09-19T15:51:32;22.80;99.90
19342;DHT22;9807;48.258;12.690;2023-09-19T15:53:57;23.10;99.90
19342;DHT22;9807;48.258;12.690;2023-09-19T15:56:25;23.10;99.90
19342;DHT22;9807;48.258;12.690;2023-09-19T15:58:53;22.90;99.90
19342;DHT22;9807;48.258;12.690;2023-09-19T16:01:19;22.70;99.90
19342;DHT22;9807;48.258;12.690;2023-09-19T16:03:51;22.70;99.90
19342;DHT22;9807;48.258;12.690;2023-09-19T16:06:33;22.70;99.90
19342;DHT22;9807;48.258;12.690;2023-09-19T16:08:59;22.80;99.90
19342;DHT22;9807;48.258;12.690;2023-09-19T16:11:27;22.80;99.90
19342;DHT22;9807;48.258;12.690;2023-09-19T16:13:56;22.80;99.90
19342;DHT22;9807;48.258;12.690;2023-09-19T16:16:22;22.60;99.90
19342;DHT22;9807;48.258;12.690;2023-09-19T16:18:50;22.70;99.90
19342;DHT22;9807;48.258;12.690;2023-09-19T16:21:21;22.80;99.90
19342;DHT22;9807;48.258;12.690;2023-09-19T16:23:49;23.00;99.90
19342;DHT22;9807;48.258;12.690;2023-09-19T16:26:16;22.90;99.90
19342;DHT22;9807;48.258;12.690;2023-09-19T16:28:44;22.80;99.90
19342;DHT22;9807;48.258;12.690;2023-09-19T16:31:10;22.60;99.90
19342;DHT22;9807;48.258;12.690;2023-09-19T16:33:38;22.50;99.90
19342;DHT22;9807;48.258;12.690;2023-09-19T16:36:17;22.40;99.90
19342;DHT22;9807;48.258;12.690;2023-09-19T16:38:45;22.20;99.90
19342;DHT22;9807;48.258;12.690;2023-09-19T16:41:13;22.10;99.90